Time;durP1;ratioP1;P1;durP2;ratioP2;P2;SDS_P1;SDS_P2;PMS_P1;PMS_P2;Temp;Humidity;BMP_temperature;BMP_pressure;BME280_temperature;BME280_humidity;BME280_pressure;Samples;Min_cycle;Max_cycle;Signal;HPM_P1;HPM_P2
2023/07/20 00:01:56;;;;;;;5.10;2.03;;;;;;;;;;4991135;28;20260;-68
2023/07/20 00:04:22;;;;;;;5.33;1.50;;;;;;;;;;5008056;28;20363;-68
2023/07/20 00:06:47;;;;;;;6.47;1.93;;;;;;;;;;5007966;28;20277;-68
2023/07/20 00:09:12;;;;;;;4.47;1.67;;;;;;;;;;4975086;28;20272;-68
2023/07/20 00:11:38;;;;;;;6.72;1.67;;;;;;;;;;5008973;28;20265;-67
2023/07/20 00:14:04;;;;;;;6.50;1.60;;;;;;;;;;5008640;28;20029;-67
2023/07/20 00:16:29;;;;;;;6.15;1.85;;;;;;;;;;4989604;28;20456;-67
2023/07/20 00:18:54;;;;;;;6.13;2.23;;;;;;;;;;5008550;28;20042;-68
2023/07/20 00:21:20;;;;;;;6.73;1.80;;;;;;;;;;4990553;28;20268;-67
2023/07/20 00:23:45;;;;;;;5.83;1.70;;;;;;;;;;5007946;28;20100;-67
2023/07/20 00:26:10;;;;;;;6.53;1.50;;;;;;;;;;5007555;28;20268;-68
2023/07/20 00:28:35;;;;;;;5.93;1.60;;;;;;;;;;5008156;28;20026;-67
2023/07/20 00:31:01;;;;;;;4.80;1.63;;;;;;;;;;4990559;28;20030;-67
2023/07/20 00:33:26;;;;;;;5.60;1.95;;;;;;;;;;4989774;28;20101;-67
2023/07/20 00:35:51;;;;;;;9.02;2.35;;;;;;;;;;5007224;28;20091;-68
2023/07/20 00:38:17;;;;;;;7.30;1.80;;;;;;;;;;4990481;28;20116;-68
2023/07/20 00:40:42;;;;;;;6.13;1.87;;;;;;;;;;4986546;28;20033;-68
2023/07/20 00:43:07;;;;;;;9.03;2.30;;;;;;;;;;4990325;28;20842;-68
2023/07/20 00:45:33;;;;;;;4.55;1.88;;;;;;;;;;4995365;28;20292;-68
2023/07/20 00:47:58;;;;;;;7.30;2.08;;;;;;;;;;4990092;28;20497;-68
2023/07/20 00:50:24;;;;;;;7.43;1.80;;;;;;;;;;5007524;28;20034;-68
2023/07/20 00:52:49;;;;;;;8.48;2.22;;;;;;;;;;4990425;28;20894;-68
2023/07/20 00:55:14;;;;;;;7.77;1.87;;;;;;;;;;5006423;28;20417;-68
2023/07/20 00:57:40;;;;;;;5.13;1.80;;;;;;;;;;4989798;28;20261;-70
2023/07/20 01:00:07;;;;;;;6.20;2.05;;;;;;;;;;4973350;28;20265;-69
2023/07/20 01:02:32;;;;;;;4.82;1.77;;;;;;;;;;4974465;28;20049;-68
2023/07/20 01:04:58;;;;;;;7.28;1.85;;;;;;;;;;5007178;28;20038;-69
2023/07/20 01:10:06;;;;;;;6.85;2.00;;;;;;;;;;5023854;28;20754;-64
2023/07/20 01:12:46;;;;;;;7.30;1.67;;;;;;;;;;4989813;28;20055;-63
2023/07/20 01:15:12;;;;;;;5.72;1.95;;;;;;;;;;5006849;28;20044;-65
2023/07/20 01:17:37;;;;;;;6.93;2.20;;;;;;;;;;5006497;28;20034;-65
2023/07/20 01:20:02;;;;;;;6.37;2.50;;;;;;;;;;4973754;28;20046;-64
2023/07/20 01:22:36;;;;;;;5.03;1.83;;;;;;;;;;5007578;28;20303;-64
2023/07/20 01:25:20;;;;;;;9.77;2.10;;;;;;;;;;5006968;28;20133;-65
2023/07/20 01:28:09;;;;;;;6.15;2.10;;;;;;;;;;5015418;22;20061;-69
2023/07/20 01:30:54;;;;;;;6.63;2.08;;;;;;;;;;4965290;28;20055;-71
2023/07/20 01:33:19;;;;;;;6.47;2.10;;;;;;;;;;4966649;28;20493;-68
2023/07/20 01:35:45;;;;;;;9.30;2.60;;;;;;;;;;4982123;28;20027;-71
2023/07/20 01:38:11;;;;;;;5.78;2.33;;;;;;;;;;4985356;28;20031;-70
2023/07/20 01:40:37;;;;;;;5.15;1.60;;;;;;;;;;4984774;28;20112;-70
2023/07/20 01:43:02;;;;;;;4.85;1.90;;;;;;;;;;4985798;28;20057;-69
2023/07/20 01:45:28;;;;;;;9.63;2.10;;;;;;;;;;4985440;28;20104;-68
2023/07/20 01:47:53;;;;;;;8.20;1.83;;;;;;;;;;4983739;28;20057;-70
2023/07/20 01:50:18;;;;;;;8.10;1.93;;;;;;;;;;4985837;28;20831;-70
2023/07/20 01:52:43;;;;;;;6.90;1.90;;;;;;;;;;4985835;28;20296;-69
2023/07/20 01:55:09;;;;;;;3.93;1.70;;;;;;;;;;4983906;28;20312;-71
2023/07/20 01:57:34;;;;;;;8.60;2.13;;;;;;;;;;4980327;28;20373;-70
2023/07/20 01:59:59;;;;;;;6.72;1.83;;;;;;;;;;4973048;28;20046;-69
2023/07/20 02:02:26;;;;;;;7.07;2.00;;;;;;;;;;4985553;28;20399;-67
2023/07/20 02:04:51;;;;;;;6.78;2.13;;;;;;;;;;4984182;28;20474;-70
2023/07/20 02:07:16;;;;;;;5.93;1.40;;;;;;;;;;4984697;28;20042;-68
2023/07/20 02:09:41;;;;;;;9.27;2.00;;;;;;;;;;4984600;28;20309;-69
2023/07/20 02:12:07;;;;;;;5.57;1.93;;;;;;;;;;4985646;28;20049;-69
2023/07/20 02:14:33;;;;;;;6.13;2.33;;;;;;;;;;4985338;28;20125;-70
2023/07/20 02:16:59;;;;;;;5.13;1.83;;;;;;;;;;4984633;28;20446;-69
2023/07/20 02:19:25;;;;;;;6.65;1.80;;;;;;;;;;4984311;28;20073;-71
2023/07/20 02:21:50;;;;;;;6.38;2.08;;;;;;;;;;4985115;28;20455;-71
2023/07/20 02:24:15;;;;;;;6.77;2.23;;;;;;;;;;4985678;28;20039;-70
2023/07/20 02:26:40;;;;;;;6.50;2.10;;;;;;;;;;4985641;28;20038;-69
2023/07/20 02:29:06;;;;;;;5.60;2.10;;;;;;;;;;5004915;28;20042;-70
2023/07/20 02:31:31;;;;;;;10.18;2.45;;;;;;;;;;4992712;28;20038;-71
2023/07/20 02:33:56;;;;;;;6.40;2.20;;;;;;;;;;4984902;28;20062;-69
2023/07/20 02:36:22;;;;;;;6.60;2.05;;;;;;;;;;4986063;28;20577;-67
2023/07/20 02:38:47;;;;;;;7.32;2.13;;;;;;;;;;4994067;28;20133;-69
2023/07/20 02:41:13;;;;;;;5.97;2.50;;;;;;;;;;4985155;28;20031;-70
2023/07/20 02:43:38;;;;;;;5.55;2.08;;;;;;;;;;4985073;28;20030;-71
2023/07/20 02:46:03;;;;;;;6.40;2.20;;;;;;;;;;4984830;28;20037;-71
2023/07/20 02:48:29;;;;;;;6.13;2.50;;;;;;;;;;4983973;28;20836;-69
2023/07/20 02:50:54;;;;;;;5.50;2.08;;;;;;;;;;4983422;28;20301;-70
2023/07/20 02:53:19;;;;;;;5.77;2.47;;;;;;;;;;4983521;28;20399;-70
2023/07/20 02:55:45;;;;;;;8.37;2.37;;;;;;;;;;4985314;28;20037;-69
2023/07/20 02:58:10;;;;;;;6.10;2.17;;;;;;;;;;4985088;28;20042;-69
2023/07/20 03:00:35;;;;;;;6.83;2.33;;;;;;;;;;4985337;28;20420;-69
2023/07/20 03:03:00;;;;;;;7.13;2.47;;;;;;;;;;4967008;28;20566;-70
2023/07/20 03:05:27;;;;;;;6.93;2.73;;;;;;;;;;4985153;28;20564;-68
2023/07/20 03:07:53;;;;;;;6.15;2.30;;;;;;;;;;4983952;28;20660;-71
2023/07/20 03:10:18;;;;;;;8.07;2.73;;;;;;;;;;4967389;28;20043;-70
2023/07/20 03:12:43;;;;;;;3.80;2.03;;;;;;;;;;4984783;28;20491;-69
2023/07/20 03:15:08;;;;;;;6.43;2.80;;;;;;;;;;4985216;28;20395;-71
2023/07/20 03:17:34;;;;;;;6.45;2.60;;;;;;;;;;4981064;28;20229;-69
2023/07/20 03:20:00;;;;;;;6.87;2.63;;;;;;;;;;4972095;28;20038;-70
2023/07/20 03:22:26;;;;;;;6.25;2.45;;;;;;;;;;4988623;28;20709;-69
2023/07/20 03:24:52;;;;;;;5.32;2.42;;;;;;;;;;4988617;28;20451;-71
2023/07/20 03:27:17;;;;;;;9.57;2.90;;;;;;;;;;4987182;28;20535;-70
2023/07/20 03:29:42;;;;;;;7.85;2.80;;;;;;;;;;4988064;28;20030;-71
2023/07/20 03:32:08;;;;;;;6.63;2.50;;;;;;;;;;4988082;28;20346;-69
2023/07/20 03:34:33;;;;;;;8.52;2.40;;;;;;;;;;4989088;28;20483;-72
2023/07/20 03:36:59;;;;;;;9.48;2.80;;;;;;;;;;4971368;28;20033;-72
2023/07/20 03:39:24;;;;;;;5.53;2.50;;;;;;;;;;4988169;28;20045;-69
2023/07/20 03:41:49;;;;;;;9.23;2.43;;;;;;;;;;4986196;28;20038;-69
2023/07/20 03:44:15;;;;;;;9.17;2.50;;;;;;;;;;4988772;28;20015;-68
2023/07/20 03:46:40;;;;;;;6.77;2.50;;;;;;;;;;4987038;28;20416;-69
2023/07/20 03:49:06;;;;;;;7.13;2.40;;;;;;;;;;4988383;28;20787;-70
2023/07/20 03:51:31;;;;;;;6.40;2.42;;;;;;;;;;4988254;28;20486;-70
2023/07/20 03:53:56;;;;;;;6.73;2.43;;;;;;;;;;4987579;28;20503;-71
2023/07/20 03:56:21;;;;;;;8.27;2.90;;;;;;;;;;4987600;28;20285;-67
2023/07/20 03:58:47;;;;;;;6.00;2.30;;;;;;;;;;4987603;28;20038;-66
2023/07/20 04:01:13;;;;;;;6.67;2.67;;;;;;;;;;4988138;28;20551;-67
2023/07/20 04:03:38;;;;;;;10.10;2.45;;;;;;;;;;4987832;28;20761;-68
2023/07/20 04:06:03;;;;;;;7.90;2.37;;;;;;;;;;4987553;28;20077;-67
2023/07/20 04:08:28;;;;;;;7.85;2.33;;;;;;;;;;4982689;28;20312;-68
2023/07/20 04:10:54;;;;;;;8.15;2.47;;;;;;;;;;4985488;28;20132;-67
2023/07/20 04:13:19;;;;;;;5.90;2.20;;;;;;;;;;4988986;28;20644;-67
2023/07/20 04:15:45;;;;;;;6.27;2.43;;;;;;;;;;4985712;28;20450;-66
2023/07/20 04:18:10;;;;;;;6.85;2.60;;;;;;;;;;4982079;28;20080;-65
2023/07/20 04:20:35;;;;;;;6.60;3.23;;;;;;;;;;4988540;28;20014;-64
2023/07/20 04:23:01;;;;;;;6.95;2.40;;;;;;;;;;4990471;28;20254;-68
2023/07/20 04:25:26;;;;;;;5.23;2.40;;;;;;;;;;4988058;28;20021;-65
2023/07/20 04:27:55;;;;;;;6.75;2.95;;;;;;;;;;4990945;28;20277;-67
2023/07/20 04:30:22;;;;;;;7.97;2.72;;;;;;;;;;4990804;28;20038;-66
2023/07/20 04:32:47;;;;;;;5.07;2.30;;;;;;;;;;4987992;28;20030;-69
2023/07/20 04:38:01;;;;;;;8.02;2.40;;;;;;;;;;5013003;23;20130;-66
2023/07/20 04:40:26;;;;;;;12.03;3.17;;;;;;;;;;4988896;28;20065;-66
2023/07/20 04:42:51;;;;;;;8.77;2.30;;;;;;;;;;4989369;28;20286;-65
2023/07/20 04:45:18;;;;;;;9.33;2.37;;;;;;;;;;4986825;28;20054;-67
2023/07/20 04:47:44;;;;;;;8.25;2.88;;;;;;;;;;4987741;28;20040;-67
2023/07/20 04:50:09;;;;;;;7.13;2.53;;;;;;;;;;4985121;28;20167;-66
2023/07/20 04:52:34;;;;;;;8.15;2.72;;;;;;;;;;4987596;28;20084;-68
2023/07/20 04:54:59;;;;;;;10.65;2.65;;;;;;;;;;4987716;28;20517;-67
2023/07/20 04:57:25;;;;;;;8.33;3.07;;;;;;;;;;4987346;28;20034;-66
2023/07/20 04:59:50;;;;;;;8.10;2.80;;;;;;;;;;4969417;28;20278;-67
2023/07/20 05:02:15;;;;;;;6.75;2.40;;;;;;;;;;4987457;28;20356;-67
2023/07/20 05:04:40;;;;;;;8.77;3.10;;;;;;;;;;4987965;28;20533;-66
2023/07/20 05:07:06;;;;;;;10.30;3.00;;;;;;;;;;4993170;28;20455;-66
2023/07/20 05:09:31;;;;;;;8.85;4.25;;;;;;;;;;4994314;28;20286;-68
2023/07/20 05:11:57;;;;;;;8.73;3.27;;;;;;;;;;4987482;28;20113;-67
2023/07/20 05:14:22;;;;;;;10.83;3.50;;;;;;;;;;4986530;28;20361;-66
2023/07/20 05:16:47;;;;;;;7.60;2.93;;;;;;;;;;4982517;28;20301;-68
2023/07/20 05:19:12;;;;;;;7.20;2.90;;;;;;;;;;4968695;28;20289;-66
2023/07/20 05:21:37;;;;;;;8.47;3.23;;;;;;;;;;4985450;28;20371;-66
2023/07/20 05:24:03;;;;;;;8.87;2.90;;;;;;;;;;4987153;28;20282;-66
2023/07/20 05:26:28;;;;;;;6.75;2.55;;;;;;;;;;4986655;28;20273;-70
2023/07/20 05:28:54;;;;;;;10.97;3.03;;;;;;;;;;4965726;28;20041;-68
2023/07/20 05:31:19;;;;;;;8.20;3.03;;;;;;;;;;4982749;28;20137;-67
2023/07/20 05:33:44;;;;;;;8.90;2.80;;;;;;;;;;4987287;28;20053;-67
2023/07/20 05:36:25;;;;;;;6.63;2.33;;;;;;;;;;4985344;28;20289;-67
2023/07/20 05:38:50;;;;;;;8.23;2.67;;;;;;;;;;4984410;28;20408;-67
2023/07/20 05:41:15;;;;;;;7.07;2.60;;;;;;;;;;4984926;28;20581;-68
2023/07/20 05:43:42;;;;;;;13.13;3.80;;;;;;;;;;4986595;28;20281;-67
2023/07/20 05:46:07;;;;;;;10.00;2.80;;;;;;;;;;4986410;28;20293;-67
2023/07/20 05:48:32;;;;;;;6.73;3.03;;;;;;;;;;4985510;28;20376;-66
2023/07/20 05:50:58;;;;;;;7.82;2.88;;;;;;;;;;4985996;28;20367;-66
2023/07/20 05:53:23;;;;;;;5.83;2.50;;;;;;;;;;4986617;28;20051;-67
2023/07/20 05:55:51;;;;;;;11.00;2.70;;;;;;;;;;4986114;28;20278;-67
2023/07/20 05:58:17;;;;;;;6.45;2.45;;;;;;;;;;4987331;28;20089;-67
2023/07/20 06:00:42;;;;;;;8.27;2.55;;;;;;;;;;4986103;28;20046;-67
2023/07/20 06:03:07;;;;;;;12.63;2.70;;;;;;;;;;4979745;28;20031;-67
2023/07/20 06:05:32;;;;;;;7.65;2.30;;;;;;;;;;4967989;28;20121;-67
2023/07/20 06:08:00;;;;;;;7.23;2.60;;;;;;;;;;4986896;28;20498;-66
2023/07/20 06:10:26;;;;;;;7.20;2.70;;;;;;;;;;4984944;28;20096;-67
2023/07/20 06:12:51;;;;;;;6.78;2.58;;;;;;;;;;4981097;28;20125;-67
2023/07/20 06:15:26;;;;;;;9.03;2.80;;;;;;;;;;4985150;28;20030;-68
2023/07/20 06:17:51;;;;;;;8.10;2.67;;;;;;;;;;4986914;28;20052;-68
2023/07/20 06:20:16;;;;;;;9.38;2.83;;;;;;;;;;4955091;28;20129;-67
2023/07/20 06:22:41;;;;;;;8.57;2.28;;;;;;;;;;4986472;28;20490;-68
2023/07/20 06:25:07;;;;;;;8.57;2.83;;;;;;;;;;4968936;28;20030;-67
2023/07/20 06:27:33;;;;;;;7.35;2.90;;;;;;;;;;4985227;28;20940;-67
2023/07/20 06:29:58;;;;;;;7.57;2.65;;;;;;;;;;4967956;28;20112;-67
2023/07/20 06:32:23;;;;;;;7.00;2.43;;;;;;;;;;4986395;28;20069;-67
2023/07/20 06:34:48;;;;;;;7.63;2.70;;;;;;;;;;4986369;28;20057;-66
2023/07/20 06:37:14;;;;;;;6.73;2.70;;;;;;;;;;4985956;28;20038;-67
2023/07/20 06:39:39;;;;;;;7.07;2.60;;;;;;;;;;4983716;28;20034;-66
2023/07/20 06:42:04;;;;;;;7.23;2.60;;;;;;;;;;4985804;28;20034;-67
2023/07/20 06:44:30;;;;;;;7.72;2.70;;;;;;;;;;4986373;28;20482;-67
2023/07/20 06:46:55;;;;;;;9.37;2.83;;;;;;;;;;4980333;28;20014;-67
2023/07/20 06:49:27;;;;;;;7.72;2.78;;;;;;;;;;4975008;28;20037;-67
2023/07/20 06:51:52;;;;;;;8.98;2.88;;;;;;;;;;4943744;28;20441;-67
2023/07/20 06:54:17;;;;;;;12.88;3.15;;;;;;;;;;4978104;28;20053;-67
2023/07/20 06:56:43;;;;;;;8.57;3.03;;;;;;;;;;4979625;28;20042;-68
2023/07/20 06:59:08;;;;;;;6.93;2.90;;;;;;;;;;4978242;28;20047;-69
2023/07/20 07:01:33;;;;;;;8.83;3.00;;;;;;;;;;4978507;28;20039;-67
2023/07/20 07:03:58;;;;;;;8.60;2.90;;;;;;;;;;4977594;28;20054;-67
2023/07/20 07:06:24;;;;;;;8.93;3.33;;;;;;;;;;4979501;28;20031;-68
2023/07/20 07:08:49;;;;;;;8.15;3.15;;;;;;;;;;4982425;28;20298;-68
2023/07/20 07:11:15;;;;;;;8.57;3.70;;;;;;;;;;4977459;28;20678;-69
2023/07/20 07:13:40;;;;;;;7.85;3.42;;;;;;;;;;4984652;28;20304;-69
2023/07/20 07:16:05;;;;;;;13.03;3.30;;;;;;;;;;4979852;28;20031;-68
2023/07/20 07:18:30;;;;;;;9.33;3.30;;;;;;;;;;4979287;28;20093;-68
2023/07/20 07:20:56;;;;;;;9.00;3.60;;;;;;;;;;4981020;28;20042;-69
2023/07/20 07:23:21;;;;;;;8.70;3.80;;;;;;;;;;4978211;28;20169;-68
2023/07/20 07:25:46;;;;;;;14.40;4.35;;;;;;;;;;4982276;28;20066;-68
2023/07/20 07:28:12;;;;;;;9.13;3.67;;;;;;;;;;4976943;28;20421;-68
2023/07/20 07:30:37;;;;;;;11.95;4.25;;;;;;;;;;4976265;28;20061;-67
2023/07/20 07:33:02;;;;;;;9.93;3.50;;;;;;;;;;4980720;28;20614;-67
2023/07/20 07:35:27;;;;;;;9.47;3.37;;;;;;;;;;4981512;28;20204;-68
2023/07/20 07:37:53;;;;;;;7.77;3.17;;;;;;;;;;4973409;28;20675;-66
2023/07/20 07:40:18;;;;;;;12.37;4.07;;;;;;;;;;4982721;28;20294;-68
2023/07/20 07:42:44;;;;;;;10.40;4.27;;;;;;;;;;4980820;28;20049;-68
2023/07/20 07:45:09;;;;;;;11.30;4.47;;;;;;;;;;4977010;28;20801;-67
2023/07/20 07:47:34;;;;;;;11.27;3.67;;;;;;;;;;4978375;28;20933;-67
2023/07/20 07:49:59;;;;;;;8.77;3.83;;;;;;;;;;4980760;28;20236;-67
2023/07/20 07:52:25;;;;;;;9.20;3.63;;;;;;;;;;4959366;28;20305;-68
2023/07/20 07:54:50;;;;;;;8.13;3.80;;;;;;;;;;4979184;28;20041;-69
2023/07/20 07:57:15;;;;;;;10.03;3.80;;;;;;;;;;4975555;28;20047;-67
2023/07/20 07:59:40;;;;;;;7.25;3.22;;;;;;;;;;4966865;28;20298;-67
2023/07/20 08:02:06;;;;;;;7.00;3.10;;;;;;;;;;4958391;28;20507;-67
2023/07/20 08:04:31;;;;;;;8.67;3.23;;;;;;;;;;4980647;28;20541;-67
2023/07/20 08:06:56;;;;;;;8.70;3.13;;;;;;;;;;4987855;28;21025;-67
2023/07/20 08:09:22;;;;;;;10.75;3.42;;;;;;;;;;4986949;28;20034;-67
2023/07/20 08:11:48;;;;;;;7.83;3.37;;;;;;;;;;4988043;28;20061;-67
2023/07/20 08:14:13;;;;;;;12.15;3.65;;;;;;;;;;4986725;28;20034;-67
2023/07/20 08:16:38;;;;;;;8.93;3.20;;;;;;;;;;4970782;28;20049;-67
2023/07/20 08:19:04;;;;;;;10.98;3.40;;;;;;;;;;4988668;28;20049;-67
2023/07/20 08:21:29;;;;;;;8.43;3.40;;;;;;;;;;4972835;28;20035;-67
2023/07/20 08:23:54;;;;;;;8.70;3.00;;;;;;;;;;4987328;28;20049;-67
2023/07/20 08:26:22;;;;;;;9.60;2.43;;;;;;;;;;4988327;28;20791;-67
2023/07/20 08:28:48;;;;;;;7.03;2.78;;;;;;;;;;4987895;28;20068;-67
2023/07/20 08:31:13;;;;;;;8.73;2.60;;;;;;;;;;4969712;28;20094;-67
2023/07/20 08:33:38;;;;;;;8.87;2.43;;;;;;;;;;4988052;28;20031;-67
2023/07/20 08:36:03;;;;;;;8.50;2.50;;;;;;;;;;4985846;28;20793;-67
2023/07/20 08:38:29;;;;;;;10.35;2.50;;;;;;;;;;4986322;28;20562;-67
2023/07/20 08:40:55;;;;;;;8.43;2.20;;;;;;;;;;4969330;28;20046;-67
2023/07/20 08:43:20;;;;;;;6.53;2.15;;;;;;;;;;4987019;28;20042;-68
2023/07/20 08:45:46;;;;;;;7.07;2.47;;;;;;;;;;4953591;28;20696;-68
2023/07/20 08:48:11;;;;;;;5.27;2.23;;;;;;;;;;4983049;28;20304;-68
2023/07/20 08:50:36;;;;;;;8.48;2.40;;;;;;;;;;4985439;28;20305;-68
2023/07/20 08:53:02;;;;;;;5.83;1.93;;;;;;;;;;4970094;28;20034;-68
2023/07/20 08:55:27;;;;;;;7.60;1.90;;;;;;;;;;4987552;28;20129;-68
2023/07/20 08:57:52;;;;;;;6.40;2.30;;;;;;;;;;4986732;28;20064;-68
2023/07/20 09:00:19;;;;;;;9.90;2.13;;;;;;;;;;4993370;28;20049;-67
2023/07/20 09:02:45;;;;;;;9.00;2.08;;;;;;;;;;5000774;28;20033;-68
2023/07/20 09:05:10;;;;;;;7.95;2.67;;;;;;;;;;4970074;28;20034;-68
2023/07/20 09:07:35;;;;;;;5.20;1.85;;;;;;;;;;4969101;28;20045;-67
2023/07/20 09:10:05;;;;;;;7.25;1.92;;;;;;;;;;4968930;28;20062;-67
2023/07/20 09:12:31;;;;;;;7.20;2.33;;;;;;;;;;4984325;28;20038;-67
2023/07/20 09:14:57;;;;;;;5.50;2.30;;;;;;;;;;4984933;28;20045;-67
2023/07/20 09:17:22;;;;;;;8.70;2.10;;;;;;;;;;4986683;28;20052;-67
2023/07/20 09:19:48;;;;;;;8.03;2.33;;;;;;;;;;4969686;28;20125;-68
2023/07/20 09:22:13;;;;;;;6.30;2.42;;;;;;;;;;4995038;28;20503;-68
2023/07/20 09:24:38;;;;;;;5.75;2.20;;;;;;;;;;4969798;28;20034;-66
2023/07/20 09:27:04;;;;;;;7.80;2.13;;;;;;;;;;4968902;28;20042;-69
2023/07/20 09:29:30;;;;;;;6.25;2.03;;;;;;;;;;4985573;28;20205;-69
2023/07/20 09:32:04;;;;;;;9.23;2.20;;;;;;;;;;4984322;28;20037;-66
2023/07/20 09:34:31;;;;;;;8.80;2.10;;;;;;;;;;4986033;28;20048;-67
2023/07/20 09:36:57;;;;;;;5.70;1.90;;;;;;;;;;4968108;28;20066;-68
2023/07/20 09:39:22;;;;;;;5.35;2.28;;;;;;;;;;4984906;28;20034;-67
2023/07/20 09:41:47;;;;;;;5.03;1.93;;;;;;;;;;4973682;28;20120;-67
2023/07/20 09:44:15;;;;;;;5.70;1.70;;;;;;;;;;4974371;28;20081;-68
2023/07/20 09:46:41;;;;;;;6.18;2.03;;;;;;;;;;4975260;28;20074;-68
2023/07/20 09:49:08;;;;;;;6.55;2.13;;;;;;;;;;4978212;28;20074;-68
2023/07/20 09:51:33;;;;;;;4.47;2.10;;;;;;;;;;4978513;28;20031;-69
2023/07/20 09:53:58;;;;;;;8.10;1.77;;;;;;;;;;4963259;28;20029;-66
2023/07/20 09:56:24;;;;;;;7.97;2.20;;;;;;;;;;4974783;28;20022;-66
2023/07/20 09:58:49;;;;;;;4.90;1.80;;;;;;;;;;4974713;28;20030;-68
2023/07/20 10:01:16;;;;;;;5.93;1.90;;;;;;;;;;4976372;28;20499;-68
2023/07/20 10:03:41;;;;;;;6.72;1.88;;;;;;;;;;4974702;28;20108;-68
2023/07/20 10:06:07;;;;;;;7.47;1.83;;;;;;;;;;4977406;28;20097;-67
2023/07/20 10:08:33;;;;;;;6.13;1.88;;;;;;;;;;4983002;28;20106;-68
2023/07/20 10:11:00;;;;;;;7.25;1.77;;;;;;;;;;4975992;28;20023;-67
2023/07/20 10:13:26;;;;;;;6.88;2.40;;;;;;;;;;4974342;28;20125;-69
2023/07/20 10:15:58;;;;;;;7.05;2.35;;;;;;;;;;4974491;28;20053;-67
2023/07/20 10:18:35;;;;;;;5.60;1.85;;;;;;;;;;4974600;28;20074;-67
2023/07/20 10:21:00;;;;;;;5.55;1.55;;;;;;;;;;4958243;28;20541;-67
2023/07/20 10:23:26;;;;;;;5.25;1.60;;;;;;;;;;4975247;28;20038;-67
2023/07/20 10:25:51;;;;;;;6.82;1.83;;;;;;;;;;4974745;28;20498;-70
2023/07/20 10:28:17;;;;;;;8.07;1.80;;;;;;;;;;4974290;28;20038;-69
2023/07/20 10:30:42;;;;;;;7.50;2.00;;;;;;;;;;4975765;28;20046;-71
2023/07/20 10:33:07;;;;;;;4.30;1.63;;;;;;;;;;4976727;28;20046;-70
2023/07/20 10:35:52;;;;;;;7.05;1.70;;;;;;;;;;4975573;28;20796;-70
2023/07/20 10:38:17;;;;;;;6.35;1.60;;;;;;;;;;4975418;28;20046;-71
2023/07/20 10:40:42;;;;;;;4.70;1.67;;;;;;;;;;4966952;28;20431;-69
2023/07/20 10:43:09;;;;;;;3.47;1.47;;;;;;;;;;4974952;28;20320;-72
2023/07/20 10:45:35;;;;;;;4.40;1.55;;;;;;;;;;4973511;28;20112;-68
2023/07/20 10:48:03;;;;;;;4.30;1.63;;;;;;;;;;4975303;28;20274;-67
2023/07/20 10:50:28;;;;;;;8.90;1.55;;;;;;;;;;4975766;28;20043;-67
2023/07/20 10:53:13;;;;;;;7.28;2.08;;;;;;;;;;4978104;28;20088;-67
2023/07/20 10:55:39;;;;;;;5.22;1.60;;;;;;;;;;4975186;28;20121;-67
2023/07/20 10:58:11;;;;;;;7.50;1.80;;;;;;;;;;4973057;28;20134;-68
2023/07/20 11:00:36;;;;;;;6.32;1.60;;;;;;;;;;4973859;28;20137;-67
2023/07/20 11:03:02;;;;;;;6.83;2.10;;;;;;;;;;4956141;28;20554;-67
2023/07/20 11:05:36;;;;;;;6.38;1.90;;;;;;;;;;4974190;28;20273;-67
2023/07/20 11:08:11;;;;;;;7.40;2.03;;;;;;;;;;4973586;28;20129;-68
2023/07/20 11:10:36;;;;;;;4.15;1.88;;;;;;;;;;4958054;28;20050;-67
2023/07/20 11:13:21;;;;;;;7.43;2.30;;;;;;;;;;4972387;28;20097;-68
2023/07/20 11:15:56;;;;;;;3.70;1.73;;;;;;;;;;4975713;28;20542;-67
2023/07/20 11:18:21;;;;;;;5.03;1.98;;;;;;;;;;4972850;28;20047;-68
2023/07/20 11:20:49;;;;;;;4.17;2.00;;;;;;;;;;4958335;28;20118;-68
2023/07/20 11:23:15;;;;;;;4.72;2.15;;;;;;;;;;4956224;28;20297;-68
2023/07/20 11:25:40;;;;;;;5.65;1.95;;;;;;;;;;4973025;28;20123;-67
2023/07/20 11:28:11;;;;;;;6.00;1.98;;;;;;;;;;4955324;28;20126;-68
2023/07/20 11:30:39;;;;;;;5.57;1.85;;;;;;;;;;4973972;28;20692;-68
2023/07/20 11:33:05;;;;;;;5.70;1.80;;;;;;;;;;4976035;28;20029;-67
2023/07/20 11:35:34;;;;;;;5.47;2.10;;;;;;;;;;4976528;28;20093;-67
2023/07/20 11:38:00;;;;;;;4.35;2.05;;;;;;;;;;4955019;28;20121;-67
2023/07/20 11:40:25;;;;;;;5.93;2.03;;;;;;;;;;4971947;28;20121;-67
2023/07/20 11:42:51;;;;;;;5.07;1.90;;;;;;;;;;4976430;28;20277;-68
2023/07/20 11:45:17;;;;;;;4.65;2.10;;;;;;;;;;4980433;28;20151;-67
2023/07/20 11:47:43;;;;;;;5.03;1.85;;;;;;;;;;4960817;28;20022;-67
2023/07/20 11:50:08;;;;;;;4.78;2.15;;;;;;;;;;4977764;28;20175;-67
2023/07/20 11:52:34;;;;;;;5.25;2.25;;;;;;;;;;4975919;28;20023;-67
2023/07/20 11:54:59;;;;;;;3.77;1.63;;;;;;;;;;4982608;28;20023;-67
2023/07/20 11:57:24;;;;;;;3.37;1.73;;;;;;;;;;4978875;28;20029;-67
2023/07/20 11:59:57;;;;;;;4.80;1.93;;;;;;;;;;4977528;28;20035;-67
2023/07/20 12:02:22;;;;;;;5.35;1.67;;;;;;;;;;4974566;28;20042;-67
2023/07/20 12:04:47;;;;;;;3.67;1.70;;;;;;;;;;4974506;28;20046;-68
2023/07/20 12:07:12;;;;;;;4.18;1.60;;;;;;;;;;4958091;28;20030;-67
2023/07/20 12:09:38;;;;;;;4.53;1.97;;;;;;;;;;4973766;28;20034;-68
2023/07/20 12:12:09;;;;;;;3.93;1.80;;;;;;;;;;4959148;28;20069;-68
2023/07/20 12:14:34;;;;;;;4.70;1.80;;;;;;;;;;4970337;28;20298;-68
2023/07/20 12:16:59;;;;;;;4.27;1.50;;;;;;;;;;4970300;28;20494;-68
2023/07/20 12:19:25;;;;;;;3.47;1.40;;;;;;;;;;4972514;28;20068;-67
2023/07/20 12:21:50;;;;;;;3.17;1.73;;;;;;;;;;4973844;28;20684;-67
2023/07/20 12:24:15;;;;;;;3.40;2.00;;;;;;;;;;4973176;28;20038;-68
2023/07/20 12:26:40;;;;;;;2.87;1.40;;;;;;;;;;4974304;28;20034;-69
2023/07/20 12:29:06;;;;;;;3.20;1.40;;;;;;;;;;4975163;28;20457;-69
2023/07/20 12:31:36;;;;;;;3.08;1.65;;;;;;;;;;4974748;28;20060;-68
2023/07/20 12:34:01;;;;;;;3.38;1.52;;;;;;;;;;4964180;28;20101;-68
2023/07/20 12:36:26;;;;;;;3.50;1.50;;;;;;;;;;4976800;28;20038;-68
2023/07/20 12:38:51;;;;;;;4.00;1.67;;;;;;;;;;4972999;28;20046;-68
2023/07/20 12:41:17;;;;;;;4.83;1.93;;;;;;;;;;4975168;28;20088;-68
2023/07/20 12:43:42;;;;;;;3.75;1.80;;;;;;;;;;4977937;28;20092;-69
2023/07/20 12:46:08;;;;;;;3.38;1.30;;;;;;;;;;4974931;28;20038;-69
2023/07/20 12:48:33;;;;;;;3.03;1.42;;;;;;;;;;4970823;28;20030;-69
2023/07/20 12:50:59;;;;;;;5.18;1.73;;;;;;;;;;4975194;28;20034;-68
2023/07/20 12:53:24;;;;;;;4.37;1.90;;;;;;;;;;4975664;28;20140;-67
2023/07/20 12:55:49;;;;;;;3.50;1.50;;;;;;;;;;4974671;28;20304;-68
2023/07/20 12:58:15;;;;;;;4.47;1.83;;;;;;;;;;4976528;28;20542;-67
2023/07/20 13:00:40;;;;;;;2.67;1.40;;;;;;;;;;4980695;28;20093;-68
2023/07/20 13:03:06;;;;;;;2.88;1.55;;;;;;;;;;4977103;28;20041;-67
2023/07/20 13:05:32;;;;;;;2.65;1.48;;;;;;;;;;4967852;28;20039;-70
2023/07/20 13:07:58;;;;;;;4.38;1.80;;;;;;;;;;4957215;28;20046;-67
2023/07/20 13:10:23;;;;;;;3.50;1.60;;;;;;;;;;4976584;28;20058;-67
2023/07/20 13:12:48;;;;;;;3.00;1.70;;;;;;;;;;4976131;28;20104;-69
2023/07/20 13:15:13;;;;;;;2.90;1.30;;;;;;;;;;4974143;28;20748;-67
2023/07/20 13:17:39;;;;;;;2.53;1.50;;;;;;;;;;4973863;28;20388;-68
2023/07/20 13:20:06;;;;;;;2.80;1.23;;;;;;;;;;4974796;28;20498;-67
2023/07/20 13:22:31;;;;;;;3.05;1.40;;;;;;;;;;4974503;28;20537;-67
2023/07/20 13:24:56;;;;;;;2.85;1.25;;;;;;;;;;4970358;28;20042;-66
2023/07/20 13:27:22;;;;;;;2.80;1.30;;;;;;;;;;4972061;28;20030;-67
2023/07/20 13:29:47;;;;;;;3.75;1.63;;;;;;;;;;4975117;28;20142;-66
2023/07/20 13:32:13;;;;;;;3.03;1.42;;;;;;;;;;4957095;28;20030;-66
2023/07/20 13:34:38;;;;;;;2.85;1.45;;;;;;;;;;4977451;28;20046;-65
2023/07/20 13:37:03;;;;;;;2.37;1.30;;;;;;;;;;4973422;28;20495;-66
2023/07/20 13:39:29;;;;;;;2.30;1.20;;;;;;;;;;4973120;28;21998;-66
2023/07/20 13:41:54;;;;;;;2.90;1.43;;;;;;;;;;4972271;28;20133;-66
2023/07/20 13:44:20;;;;;;;3.85;1.58;;;;;;;;;;4971823;28;20282;-67
2023/07/20 13:46:46;;;;;;;2.38;1.27;;;;;;;;;;4971960;28;20034;-70
2023/07/20 13:49:11;;;;;;;2.67;1.30;;;;;;;;;;4955401;28;20570;-67
2023/07/20 13:51:36;;;;;;;3.37;1.50;;;;;;;;;;4956161;28;20043;-66
2023/07/20 13:54:01;;;;;;;3.13;1.20;;;;;;;;;;4972179;28;20164;-67
2023/07/20 13:56:26;;;;;;;2.15;1.40;;;;;;;;;;4971421;28;20038;-67
2023/07/20 13:58:52;;;;;;;2.30;1.20;;;;;;;;;;4955743;28;20121;-68
2023/07/20 14:01:17;;;;;;;2.25;1.20;;;;;;;;;;4974208;28;20490;-65
2023/07/20 14:03:43;;;;;;;2.00;1.23;;;;;;;;;;4971936;28;20058;-66
2023/07/20 14:06:08;;;;;;;3.15;1.63;;;;;;;;;;4956466;28;20102;-68
2023/07/20 14:08:33;;;;;;;2.33;1.30;;;;;;;;;;4975280;28;20485;-69
2023/07/20 14:10:58;;;;;;;2.50;1.37;;;;;;;;;;4966888;28;20753;-69
2023/07/20 14:13:24;;;;;;;2.17;1.30;;;;;;;;;;4971501;28;20955;-67
2023/07/20 14:15:50;;;;;;;2.30;1.13;;;;;;;;;;4974390;28;20034;-67
2023/07/20 14:18:15;;;;;;;2.42;1.10;;;;;;;;;;4956187;28;20050;-67
2023/07/20 14:20:40;;;;;;;2.73;1.40;;;;;;;;;;4971911;28;20027;-67
2023/07/20 14:23:06;;;;;;;3.47;1.10;;;;;;;;;;4974631;28;20427;-68
2023/07/20 14:25:32;;;;;;;2.03;1.10;;;;;;;;;;4971898;28;20110;-67
2023/07/20 14:27:57;;;;;;;2.05;1.40;;;;;;;;;;4972120;28;20471;-67
2023/07/20 14:30:23;;;;;;;3.07;1.33;;;;;;;;;;4973831;28;20050;-67
2023/07/20 14:32:48;;;;;;;2.05;1.20;;;;;;;;;;4974380;28;20479;-68
2023/07/20 14:35:14;;;;;;;2.47;1.02;;;;;;;;;;4971652;28;21853;-67
2023/07/20 14:37:39;;;;;;;2.13;1.15;;;;;;;;;;4973515;28;20030;-67
2023/07/20 14:40:05;;;;;;;2.10;1.23;;;;;;;;;;4973962;28;20031;-67
2023/07/20 14:42:32;;;;;;;2.22;1.13;;;;;;;;;;4973274;28;20023;-67